Time;durP1;ratioP1;P1;durP2;ratioP2;P2;SDS_P1;SDS_P2;PMS_P1;PMS_P2;Temp;Humidity;BMP_temperature;BMP_pressure;BME280_temperature;BME280_humidity;BME280_pressure;Samples;Min_cycle;Max_cycle;Signal;HPM_P1;HPM_P2
2023/01/28 00:00:29;;;;;;;0.20;0.20;;;;;;;5.74;62.61;103104.00;5073449;28;20069;-83
2023/01/28 00:02:55;;;;;;;0.10;0.10;;;;;;;5.76;62.54;103107.59;5077465;28;20162;-81
2023/01/28 00:05:22;;;;;;;0.10;0.10;;;;;;;5.76;62.50;103107.59;5085569;28;20036;-83
2023/01/28 00:07:50;;;;;;;0.20;0.20;;;;;;;5.77;62.40;103105.84;5074948;28;20024;-83
2023/01/28 00:10:17;;;;;;;0.20;0.20;;;;;;;5.75;62.19;103112.81;5078940;28;20043;-82
2023/01/28 00:12:43;;;;;;;0.60;0.40;;;;;;;5.71;62.10;103114.44;5075664;28;20020;-82
2023/01/28 00:15:10;;;;;;;0.10;0.10;;;;;;;5.71;62.13;103114.44;5073784;28;20119;-82
2023/01/28 00:17:36;;;;;;;0.10;0.10;;;;;;;5.71;62.17;103117.06;5078789;28;20499;-82
2023/01/28 00:20:03;;;;;;;0.10;0.10;;;;;;;5.71;61.92;103116.16;5079464;28;20602;-82
2023/01/28 00:22:30;;;;;;;0.82;0.82;;;;;;;5.72;61.87;103112.69;5075015;28;20053;-82
2023/01/28 00:24:57;;;;;;;0.10;0.10;;;;;;;5.70;61.84;103107.38;5079117;28;20077;-82
2023/01/28 00:27:23;;;;;;;0.30;0.30;;;;;;;5.69;61.96;103104.69;5083222;28;20051;-80
2023/01/28 00:29:49;;;;;;;0.10;0.10;;;;;;;5.67;61.90;103102.91;5082295;28;20089;-82
2023/01/28 00:32:15;;;;;;;0.10;0.10;;;;;;;5.67;62.07;103107.28;5070544;28;20098;-81
2023/01/28 00:34:41;;;;;;;0.10;0.10;;;;;;;5.69;62.28;103110.84;5090952;28;20103;-81
2023/01/28 00:37:08;;;;;;;0.10;0.10;;;;;;;5.71;62.29;103106.56;5080905;28;20027;-83
2023/01/28 00:39:34;;;;;;;0.10;0.10;;;;;;;5.71;62.18;103106.56;5089135;28;20024;-83
2023/01/28 00:42:00;;;;;;;0.10;0.10;;;;;;;5.71;62.38;103109.19;5082670;28;20037;-82
2023/01/28 00:44:27;;;;;;;0.32;0.32;;;;;;;5.72;62.18;103105.72;5082593;28;20099;-83
2023/01/28 00:46:53;;;;;;;0.15;0.15;;;;;;;5.72;62.44;103108.34;5072522;28;20032;-83
2023/01/28 00:49:20;;;;;;;0.10;0.10;;;;;;;5.73;62.09;103110.16;5068384;28;20029;-83
2023/01/28 00:51:47;;;;;;;0.10;0.10;;;;;;;5.74;62.17;103109.28;5089878;28;20036;-83
2023/01/28 00:54:14;;;;;;;0.63;0.63;;;;;;;5.74;62.21;103109.28;5075319;28;20107;-83
2023/01/28 00:56:40;;;;;;;0.10;0.10;;;;;;;5.73;62.33;103107.50;5072900;28;20043;-83
2023/01/28 00:59:06;;;;;;;0.10;0.10;;;;;;;5.74;62.47;103104.00;5082300;28;20035;-81
2023/01/28 01:01:32;;;;;;;0.10;0.10;;;;;;;5.74;62.46;103101.38;5088021;28;20040;-81
2023/01/28 01:04:01;;;;;;;0.10;0.10;;;;;;;5.74;62.34;103109.28;5081767;28;20032;-82
2023/01/28 01:06:31;;;;;;;0.28;0.28;;;;;;;5.75;62.39;103113.69;5093678;28;20029;-80
2023/01/28 01:08:58;;;;;;;0.10;0.10;;;;;;;5.74;62.65;103109.28;5080627;28;20793;-80
2023/01/28 01:11:24;;;;;;;0.10;0.10;;;;;;;5.71;62.39;103110.91;5078030;28;20575;-80
2023/01/28 01:13:54;;;;;;;0.10;0.10;;;;;;;5.72;62.18;103113.59;5076571;28;20044;-83
2023/01/28 01:16:22;;;;;;;0.10;0.10;;;;;;;5.70;62.23;103106.50;5086911;28;20059;-79
2023/01/28 01:18:50;;;;;;;0.20;0.20;;;;;;;5.69;62.25;103116.09;5082608;28;20028;-81
2023/01/28 01:21:19;;;;;;;0.10;0.10;;;;;;;5.70;62.16;103112.66;5090280;28;20043;-80
2023/01/28 01:23:46;;;;;;;0.10;0.10;;;;;;;5.66;62.25;103105.50;5079039;28;20111;-81
2023/01/28 01:26:13;;;;;;;0.10;0.10;;;;;;;5.66;62.03;103108.13;5088029;28;20090;-82
2023/01/28 01:28:39;;;;;;;0.45;0.45;;;;;;;5.67;62.01;103107.28;5068573;28;20097;-82
2023/01/28 01:31:10;;;;;;;0.28;0.28;;;;;;;5.66;61.95;103110.75;5079719;28;20036;-81
2023/01/28 01:33:36;;;;;;;1.65;1.55;;;;;;;5.65;61.94;103103.69;5083999;28;20023;-82
2023/01/28 01:36:02;;;;;;;0.20;0.20;;;;;;;5.65;61.86;103108.94;5082898;28;20040;-80
2023/01/28 01:38:29;;;;;;;0.10;0.10;;;;;;;5.65;61.76;103104.56;5076895;28;20037;-82
2023/01/28 01:40:58;;;;;;;0.10;0.10;;;;;;;5.67;62.14;103102.91;5075605;28;20503;-81
2023/01/28 01:43:44;;;;;;;0.20;0.20;;;;;;;5.67;62.08;103104.66;5065200;28;20082;-81
2023/01/28 01:46:11;;;;;;;0.10;0.10;;;;;;;5.65;61.70;103103.69;5082236;28;20555;-80
2023/01/28 01:48:38;;;;;;;0.10;0.10;;;;;;;5.65;61.95;103106.31;5069921;28;20120;-81
2023/01/28 01:51:10;;;;;;;0.20;0.20;;;;;;;5.67;62.08;103107.28;5090688;28;20028;-81
2023/01/28 01:53:40;;;;;;;0.28;0.28;;;;;;;5.65;61.93;103112.47;5077381;28;20025;-81
2023/01/28 01:56:11;;;;;;;0.10;0.10;;;;;;;5.67;62.14;103102.03;5078301;28;20028;-81
2023/01/28 01:58:41;;;;;;;0.20;0.20;;;;;;;5.66;61.95;103106.38;5077241;28;20031;-82
2023/01/28 02:01:07;;;;;;;0.10;0.10;;;;;;;5.65;61.95;103104.56;5067862;28;20029;-82
2023/01/28 02:06:25;;;;;;;0.23;0.23;;;;;;;5.65;61.73;103108.94;5107005;27;1174525;-80
2023/01/28 02:08:54;;;;;;;0.10;0.10;;;;;;;5.64;61.88;103110.66;5132854;27;20277;-83
2023/01/28 02:11:24;;;;;;;0.10;0.10;;;;;;;5.63;62.04;103108.00;5132296;28;20027;-82
2023/01/28 02:13:53;;;;;;;0.10;0.10;;;;;;;5.62;62.08;103098.31;5142780;28;20052;-83
2023/01/28 02:16:21;;;;;;;0.10;0.10;;;;;;;5.59;62.13;103093.81;5122535;28;20081;-83
2023/01/28 02:18:47;;;;;;;0.10;0.10;;;;;;;5.58;62.32;103102.59;5125028;27;20055;-83
2023/01/28 02:21:42;;;;;;;0.10;0.10;;;;;;;5.64;62.24;103108.03;5124528;28;20032;-83
2023/01/28 02:24:40;;;;;;;0.10;0.10;;;;;;;5.66;62.29;103102.84;5113920;28;20039;-82
2023/01/28 02:30:06;;;;;;;0.20;0.20;;;;;;;5.62;62.54;103116.72;5073642;28;20383;-82
2023/01/28 02:32:44;;;;;;;0.10;0.10;;;;;;;5.65;62.39;103122.09;5053379;28;20410;-83
2023/01/28 02:35:21;;;;;;;0.10;0.10;;;;;;;5.65;62.45;103127.38;5041742;28;20044;-83
2023/01/28 02:37:54;;;;;;;0.10;0.10;;;;;;;5.66;62.36;103132.69;5055607;28;20085;-81
2023/01/28 02:40:28;;;;;;;0.10;0.10;;;;;;;5.64;62.38;103131.72;5064720;28;20029;-82
2023/01/28 02:42:55;;;;;;;0.10;0.10;;;;;;;5.62;62.24;103129.84;5054682;28;20032;-83
2023/01/28 02:48:20;;;;;;;0.40;0.40;;;;;;;5.63;62.27;103121.13;5052123;28;20026;-81
2023/01/28 02:50:57;;;;;;;0.10;0.10;;;;;;;5.66;62.23;103116.00;5048969;28;20043;-80
2023/01/28 02:53:42;;;;;;;0.10;0.10;;;;;;;5.65;62.29;103115.09;5046522;28;20071;-81
2023/01/28 03:01:40;;;;;;;0.10;0.10;;;;;;;5.63;62.42;103118.50;5108592;27;1180795;-80
2023/01/28 03:04:17;;;;;;;0.10;0.10;;;;;;;5.62;62.40;103121.97;5128020;27;20294;-82
2023/01/28 03:06:49;;;;;;;0.10;0.10;;;;;;;5.63;62.28;103127.31;5104277;28;20028;-82
2023/01/28 03:09:25;;;;;;;0.20;0.20;;;;;;;5.62;62.65;103119.34;5110451;28;20364;-81
2023/01/28 03:37:00;;;;;;;0.10;0.10;;;;;;;5.42;61.16;103126.50;5119593;27;20050;-83
2023/01/28 03:39:29;;;;;;;0.10;0.10;;;;;;;5.42;60.78;103135.28;5120285;27;20413;-83
2023/01/28 03:42:02;;;;;;;0.10;0.10;;;;;;;5.45;60.96;103131.88;5117851;27;20030;-83
2023/01/28 03:45:02;;;;;;;0.40;0.40;;;;;;;5.44;61.16;103124.81;5121350;27;20032;-82
2023/01/28 03:47:15;;;;;;;0.10;0.10;;;;;;;5.43;60.96;103126.56;5120627;27;20058;-82
2023/01/28 03:49:45;;;;;;;0.10;0.10;;;;;;;5.43;60.66;103123.94;5126689;27;20038;-83
2023/01/28 03:52:11;;;;;;;0.10;0.10;;;;;;;5.43;60.94;103108.16;5120952;27;20035;-83
2023/01/28 03:54:38;;;;;;;0.10;0.10;;;;;;;5.43;61.13;103112.50;5121736;27;20024;-84
2023/01/28 03:57:05;;;;;;;0.10;0.10;;;;;;;5.44;60.81;103119.56;5124593;27;20027;-83
2023/01/28 03:59:33;;;;;;;0.10;0.10;;;;;;;5.47;61.03;103120.56;5127793;27;20044;-83
2023/01/28 04:02:01;;;;;;;0.70;0.70;;;;;;;5.48;61.24;103130.25;5129036;27;20023;-83
2023/01/28 04:04:31;;;;;;;0.10;0.10;;;;;;;5.51;61.40;103137.38;5119937;27;20360;-82
2023/01/28 04:06:58;;;;;;;0.10;0.10;;;;;;;5.47;61.15;103145.97;5115282;27;20032;-83
2023/01/28 04:09:24;;;;;;;0.15;0.15;;;;;;;5.46;61.13;103145.06;5116449;27;20019;-83
2023/01/28 04:11:50;;;;;;;0.10;0.10;;;;;;;5.39;60.29;103148.28;5122584;27;20023;-80
2023/01/28 04:14:17;;;;;;;0.10;0.10;;;;;;;5.37;60.26;103154.34;5116330;27;20058;-81
2023/01/28 04:16:44;;;;;;;0.20;0.20;;;;;;;5.38;60.59;103148.25;5111604;27;20236;-81
2023/01/28 04:19:11;;;;;;;0.17;0.17;;;;;;;5.39;60.60;103145.66;5114645;27;20016;-81
2023/01/28 04:21:38;;;;;;;0.10;0.10;;;;;;;5.40;60.96;103150.09;5118959;27;20034;-82
2023/01/28 04:24:05;;;;;;;0.10;0.10;;;;;;;5.41;60.98;103157.16;5117217;27;20066;-82
2023/01/28 04:26:31;;;;;;;0.10;0.10;;;;;;;5.41;61.31;103157.16;5105407;28;20039;-82
2023/01/28 04:28:57;;;;;;;0.10;0.10;;;;;;;5.42;61.30;103164.22;5120487;28;20261;-80
2023/01/28 04:31:23;;;;;;;0.13;0.13;;;;;;;5.40;60.54;103170.25;5115280;28;20028;-83
2023/01/28 04:33:50;;;;;;;0.30;0.30;;;;;;;5.40;60.65;103165.88;5095745;28;20100;-83
2023/01/28 04:36:16;;;;;;;0.20;0.20;;;;;;;5.40;60.66;103165.88;5098806;28;20523;-83
2023/01/28 04:38:42;;;;;;;0.15;0.15;;;;;;;5.40;60.49;103157.97;5100197;28;20493;-83
2023/01/28 04:41:09;;;;;;;0.10;0.10;;;;;;;5.41;60.56;103150.97;5096383;28;20024;-83
2023/01/28 04:43:35;;;;;;;0.10;0.10;;;;;;;5.40;60.53;103157.97;5098925;28;20053;-81
2023/01/28 04:46:01;;;;;;;0.10;0.10;;;;;;;5.40;60.89;103155.34;5098369;28;20158;-82
2023/01/28 04:48:29;;;;;;;0.10;0.10;;;;;;;5.39;60.54;103153.56;5098657;28;20475;-83
2023/01/28 04:50:55;;;;;;;0.10;0.10;;;;;;;5.37;60.58;103136.84;5099233;28;20023;-84
2023/01/28 04:53:22;;;;;;;0.10;0.10;;;;;;;5.38;60.86;103135.97;5100080;28;20032;-83
2023/01/28 04:55:48;;;;;;;0.10;0.10;;;;;;;5.39;60.82;103144.78;5099896;28;20028;-83
2023/01/28 04:58:14;;;;;;;0.65;0.63;;;;;;;5.40;60.65;103147.47;5096865;28;20469;-83
2023/01/28 05:00:40;;;;;;;0.10;0.10;;;;;;;5.40;60.67;103142.22;5095692;28;20107;-84
2023/01/28 05:03:06;;;;;;;0.10;0.10;;;;;;;5.42;61.01;103140.53;5112425;27;20136;-84
2023/01/28 05:05:32;;;;;;;0.10;0.10;;;;;;;5.42;60.96;103139.63;5120576;27;20028;-84
2023/01/28 05:07:58;;;;;;;0.10;0.10;;;;;;;5.43;60.72;103144.97;5118102;27;20016;-82
2023/01/28 05:10:26;;;;;;;0.10;0.10;;;;;;;5.42;60.42;103158.03;5114590;28;20411;-82
2023/01/28 05:12:53;;;;;;;0.10;0.10;;;;;;;5.37;60.48;103144.75;5114638;27;20027;-84
2023/01/28 05:15:19;;;;;;;0.10;0.10;;;;;;;5.35;60.29;103156.91;5117959;27;20484;-83
2023/01/28 05:17:46;;;;;;;0.10;0.10;;;;;;;5.32;59.97;103154.16;5126680;27;20024;-81
2023/01/28 05:20:14;;;;;;;0.10;0.10;;;;;;;5.33;59.88;103150.69;5121791;27;20053;-80
2023/01/28 05:22:41;;;;;;;0.10;0.10;;;;;;;5.33;60.22;103155.94;5125918;27;20030;-82
2023/01/28 05:25:08;;;;;;;0.10;0.10;;;;;;;5.27;59.58;103158.34;5140410;27;20023;-83
2023/01/28 05:27:34;;;;;;;0.10;0.10;;;;;;;5.26;59.72;103156.53;5120649;27;20038;-82
2023/01/28 05:30:01;;;;;;;0.10;0.10;;;;;;;5.24;59.98;103159.13;5121485;27;20034;-81
2023/01/28 05:32:27;;;;;;;0.10;0.10;;;;;;;5.21;59.78;103158.09;5126398;27;20039;-81
2023/01/28 05:34:53;;;;;;;0.10;0.10;;;;;;;5.17;59.22;103157.06;5129819;27;20023;-82
2023/01/28 05:37:19;;;;;;;0.10;0.10;;;;;;;5.15;59.15;103156.13;5122512;27;20049;-84
2023/01/28 05:39:45;;;;;;;0.10;0.10;;;;;;;5.16;59.94;103150.94;5114592;27;20024;-83
2023/01/28 05:42:11;;;;;;;0.10;0.10;;;;;;;5.16;60.15;103145.69;5119941;27;20110;-83
2023/01/28 05:44:37;;;;;;;0.10;0.10;;;;;;;5.14;59.56;103149.97;5129628;27;20034;-82
2023/01/28 05:47:03;;;;;;;0.10;0.10;;;;;;;5.12;59.12;103148.13;5117765;27;21845;-84
2023/01/28 05:49:29;;;;;;;0.25;0.25;;;;;;;5.13;59.99;103152.53;5118402;27;20037;-82
2023/01/28 05:51:55;;;;;;;0.10;0.10;;;;;;;5.12;59.51;103143.78;5125719;27;20035;-82
2023/01/28 05:54:21;;;;;;;0.10;0.10;;;;;;;5.13;59.85;103140.28;5125964;27;20031;-81
2023/01/28 05:56:47;;;;;;;0.10;0.10;;;;;;;5.12;60.13;103143.78;5120442;28;20046;-82
2023/01/28 05:59:14;;;;;;;0.10;0.10;;;;;;;5.14;59.79;103149.06;5110186;27;20055;-83
2023/01/28 06:01:40;;;;;;;0.10;0.10;;;;;;;5.15;60.07;103143.88;5107404;28;20032;-82
2023/01/28 06:04:06;;;;;;;0.10;0.10;;;;;;;5.18;59.88;103154.53;5111343;28;20541;-83
2023/01/28 06:06:32;;;;;;;0.10;0.10;;;;;;;5.21;60.30;103158.09;5111568;28;20043;-82
2023/01/28 06:08:58;;;;;;;0.10;0.10;;;;;;;5.22;59.86;103165.16;5111962;28;20066;-81
2023/01/28 06:11:24;;;;;;;0.30;0.30;;;;;;;5.21;60.19;103158.09;5122876;27;20033;-82
2023/01/28 06:13:50;;;;;;;0.10;0.10;;;;;;;5.17;59.99;103157.06;5120176;27;20024;-82
2023/01/28 06:16:17;;;;;;;0.10;0.10;;;;;;;5.10;59.78;103161.19;5122926;28;20106;-82
2023/01/28 06:18:43;;;;;;;0.10;0.10;;;;;;;5.11;59.48;103148.94;5113056;27;20484;-83
2023/01/28 06:21:09;;;;;;;0.10;0.10;;;;;;;5.10;60.14;103155.94;5117655;28;20024;-82
2023/01/28 06:23:35;;;;;;;0.10;0.10;;;;;;;5.09;59.78;103156.78;5108341;28;20038;-81
2023/01/28 06:26:02;;;;;;;0.10;0.10;;;;;;;5.11;59.96;103160.38;5109226;28;20085;-81
2023/01/28 06:28:28;;;;;;;0.10;0.10;;;;;;;5.14;60.06;103160.47;5115512;28;20027;-82
2023/01/28 06:30:54;;;;;;;0.10;0.10;;;;;;;5.16;60.32;103166.69;5115586;28;20530;-82
2023/01/28 06:33:21;;;;;;;0.63;0.63;;;;;;;5.18;60.25;103170.28;5118177;28;20114;-80
2023/01/28 06:35:47;;;;;;;0.10;0.10;;;;;;;5.22;60.42;103180.91;5115336;28;20469;-82
2023/01/28 06:38:14;;;;;;;1.33;1.30;;;;;;;5.24;60.13;103179.25;5112063;28;20076;-81
2023/01/28 06:40:40;;;;;;;0.10;0.10;;;;;;;5.21;60.30;103169.53;5115965;28;20055;-81
2023/01/28 06:43:06;;;;;;;0.13;0.13;;;;;;;5.19;59.81;103172.06;5113585;28;20020;-82
2023/01/28 06:45:33;;;;;;;0.10;0.10;;;;;;;5.17;59.79;103176.38;5107357;28;20051;-82
2023/01/28 06:47:59;;;;;;;0.10;0.10;;;;;;;5.18;60.09;103172.94;5129264;28;20027;-83
2023/01/28 06:50:25;;;;;;;0.10;0.10;;;;;;;5.17;59.92;103171.13;5118930;28;20043;-82
2023/01/28 06:52:51;;;;;;;0.10;0.10;;;;;;;5.14;59.52;103178.88;5117399;28;20059;-82
2023/01/28 06:55:17;;;;;;;0.10;0.10;;;;;;;5.13;59.40;103187.59;5109202;28;20054;-83
2023/01/28 06:57:44;;;;;;;0.10;0.10;;;;;;;5.09;59.09;103187.41;5111540;28;20088;-83
2023/01/28 07:00:14;;;;;;;0.15;0.15;;;;;;;5.13;59.69;103178.81;5111272;28;20121;-83
2023/01/28 07:02:40;;;;;;;0.10;0.10;;;;;;;5.12;59.79;103175.31;5107478;28;20019;-83
2023/01/28 07:05:06;;;;;;;0.15;0.15;;;;;;;5.09;59.23;103176.91;5111705;28;20027;-82
2023/01/28 07:07:33;;;;;;;0.20;0.20;;;;;;;5.10;59.44;103182.22;5107402;28;20036;-82
2023/01/28 07:09:59;;;;;;;0.10;0.10;;;;;;;5.08;59.12;103185.63;5105005;28;20038;-82
2023/01/28 07:12:25;;;;;;;0.10;0.10;;;;;;;5.09;59.36;103180.41;5110776;28;20059;-80
2023/01/28 07:14:51;;;;;;;0.10;0.10;;;;;;;5.08;59.21;103181.25;5111960;28;20106;-81
2023/01/28 07:17:17;;;;;;;0.10;0.10;;;;;;;5.11;59.40;103185.72;5112828;28;20023;-82
2023/01/28 07:19:43;;;;;;;0.10;0.10;;;;;;;5.11;59.64;103189.28;5128447;28;20040;-80
2023/01/28 07:22:09;;;;;;;0.10;0.10;;;;;;;5.14;59.79;103197.25;5129030;28;20024;-82
2023/01/28 07:24:35;;;;;;;0.10;0.10;;;;;;;5.16;59.73;103200.88;5108352;28;20020;-81
2023/01/28 07:27:03;;;;;;;0.10;0.10;;;;;;;5.15;59.50;103199.06;5112062;28;20034;-81
2023/01/28 07:29:31;;;;;;;0.10;0.10;;;;;;;5.16;59.46;103198.25;5104421;28;20036;-82
2023/01/28 07:31:58;;;;;;;0.10;0.10;;;;;;;5.15;59.62;103196.44;5104502;28;20027;-83
2023/01/28 07:34:24;;;;;;;0.10;0.10;;;;;;;5.15;59.61;103196.44;5093293;28;20032;-84
2023/01/28 07:36:52;;;;;;;0.10;0.10;;;;;;;5.15;59.72;103196.44;5092419;28;20035;-83
2023/01/28 07:39:18;;;;;;;0.10;0.10;;;;;;;5.17;59.71;103196.50;5100002;28;20035;-82
2023/01/28 07:41:44;;;;;;;0.10;0.10;;;;;;;5.16;60.04;103198.25;5101172;28;20042;-82
2023/01/28 07:44:10;;;;;;;0.10;0.10;;;;;;;5.17;59.95;103200.03;5090464;28;20062;-81
2023/01/28 07:46:37;;;;;;;0.13;0.13;;;;;;;5.18;59.98;103201.84;5091322;28;20020;-82
2023/01/28 07:49:03;;;;;;;0.10;0.10;;;;;;;5.15;59.49;103188.56;5097805;28;20031;-83
2023/01/28 07:51:29;;;;;;;0.10;0.10;;;;;;;5.10;59.31;103187.47;5105293;28;20035;-81
2023/01/28 07:53:55;;;;;;;0.10;0.10;;;;;;;5.01;59.68;103202.88;5099069;28;20027;-82
2023/01/28 07:56:22;;;;;;;0.20;0.20;;;;;;;4.90;60.14;103214.66;5102191;28;20032;-81
2023/01/28 07:58:49;;;;;;;0.10;0.10;;;;;;;4.81;60.41;103200.31;5106299;28;20038;-82
2023/01/28 08:01:17;;;;;;;0.10;0.10;;;;;;;4.71;60.81;103203.41;5105760;28;20031;-82
2023/01/28 08:03:43;;;;;;;0.10;0.10;;;;;;;4.61;60.58;103193.31;5100451;28;20031;-83
2023/01/28 08:06:10;;;;;;;0.10;0.10;;;;;;;4.50;60.74;103192.88;5119206;28;20024;-83
2023/01/28 08:08:36;;;;;;;0.10;0.10;;;;;;;4.41;61.15;103203.88;5108899;28;20097;-82
2023/01/28 08:11:10;;;;;;;0.10;0.10;;;;;;;4.38;60.95;103208.97;5122002;28;20417;-81
2023/01/28 08:13:36;;;;;;;0.10;0.10;;;;;;;4.29;61.34;103209.47;5128604;28;20118;-83
2023/01/28 08:16:03;;;;;;;0.10;0.10;;;;;;;4.26;61.66;103206.72;5119480;28;20024;-84
2023/01/28 08:18:29;;;;;;;0.20;0.20;;;;;;;4.25;61.66;103204.94;5109654;28;20042;-83
2023/01/28 08:20:57;;;;;;;0.20;0.20;;;;;;;4.26;61.45;103204.09;5104040;28;20038;-83
2023/01/28 08:23:26;;;;;;;0.20;0.20;;;;;;;4.25;61.61;103212.81;5113481;28;20028;-81
2023/01/28 08:25:53;;;;;;;0.10;0.10;;;;;;;4.27;61.53;103224.25;5102212;28;20036;-82
2023/01/28 08:28:20;;;;;;;0.10;0.10;;;;;;;4.28;62.01;103228.66;5099033;28;20502;-82
2023/01/28 08:30:46;;;;;;;0.30;0.30;;;;;;;4.33;61.86;103215.75;5100790;28;20106;-83
2023/01/28 08:33:14;;;;;;;0.10;0.10;;;;;;;4.38;61.74;103222.09;5098955;28;20097;-82
2023/01/28 08:35:40;;;;;;;0.10;0.10;;;;;;;4.41;61.45;103227.50;5095605;28;20110;-83
2023/01/28 08:38:08;;;;;;;0.10;0.10;;;;;;;4.45;61.76;103237.28;5098059;28;20027;-82
2023/01/28 08:40:34;;;;;;;0.10;0.10;;;;;;;4.51;61.87;103234.03;5099064;28;20038;-82
2023/01/28 08:43:01;;;;;;;0.10;0.10;;;;;;;4.54;61.88;103248.19;5111433;28;20020;-80
2023/01/28 08:45:28;;;;;;;0.10;0.10;;;;;;;4.54;62.29;103256.06;5118593;28;20086;-81
2023/01/28 08:47:59;;;;;;;0.10;0.10;;;;;;;4.53;62.17;103256.88;5110937;28;20044;-82
2023/01/28 08:50:31;;;;;;;0.10;0.10;;;;;;;4.45;61.93;103253.03;5114903;28;20057;-83
2023/01/28 08:53:02;;;;;;;0.10;0.10;;;;;;;4.40;62.06;103249.31;5099076;28;20028;-83
2023/01/28 08:55:29;;;;;;;0.10;0.10;;;;;;;4.34;62.10;103249.06;5108746;28;20424;-82
2023/01/28 08:57:55;;;;;;;0.10;0.10;;;;;;;4.31;62.41;103256.78;5115634;28;20476;-82
2023/01/28 09:00:22;;;;;;;0.10;0.10;;;;;;;4.32;62.62;103245.44;5122254;28;20038;-82
2023/01/28 09:02:52;;;;;;;0.82;0.82;;;;;;;4.36;63.01;103252.63;5105417;28;20496;-81
2023/01/28 09:05:19;;;;;;;0.10;0.10;;;;;;;4.36;62.95;103247.38;5101143;28;20038;-82
2023/01/28 09:07:46;;;;;;;0.10;0.10;;;;;;;4.38;62.53;103245.72;5103591;28;20051;-80
2023/01/28 09:10:12;;;;;;;0.20;0.20;;;;;;;4.40;62.49;103244.06;5103127;28;20456;-82
2023/01/28 09:12:38;;;;;;;0.20;0.20;;;;;;;4.42;62.97;103247.66;5098088;28;20024;-82
2023/01/28 09:15:05;;;;;;;0.10;0.10;;;;;;;4.43;62.33;103257.31;5094095;28;20023;-82
2023/01/28 09:17:31;;;;;;;0.20;0.20;;;;;;;4.45;62.04;103262.63;5104066;28;20511;-81
2023/01/28 09:19:57;;;;;;;0.10;0.10;;;;;;;4.49;62.27;103262.84;5096703;28;20088;-82
2023/01/28 09:22:23;;;;;;;0.32;0.32;;;;;;;4.54;62.13;103263.94;5097094;28;20028;-82
2023/01/28 09:24:50;;;;;;;0.10;0.10;;;;;;;4.63;61.87;103273.94;5099387;28;20023;-83
2023/01/28 09:27:16;;;;;;;0.10;0.10;;;;;;;4.76;61.60;103280.66;5104656;28;20078;-81
2023/01/28 09:29:42;;;;;;;0.10;0.10;;;;;;;4.96;61.44;103288.47;5093271;28;20039;-81
2023/01/28 09:32:08;;;;;;;0.10;0.10;;;;;;;5.13;60.84;103292.69;5094796;28;20036;-82
2023/01/28 09:34:35;;;;;;;0.10;0.10;;;;;;;5.26;60.11;103278.38;5120785;28;20059;-81
2023/01/28 09:37:01;;;;;;;0.20;0.20;;;;;;;5.33;59.45;103288.31;5120229;28;20019;-81
2023/01/28 09:39:27;;;;;;;0.15;0.15;;;;;;;5.39;59.02;103287.63;5108111;28;20038;-82
2023/01/28 09:42:27;;;;;;;0.30;0.30;;;;;;;5.53;59.91;103292.56;5123555;28;20039;-81
2023/01/28 09:47:38;;;;;;;0.10;0.10;;;;;;;5.45;58.29;103289.63;5093699;27;20755;-83
2023/01/28 09:50:11;;;;;;;0.10;0.10;;;;;;;5.43;57.76;103286.94;5092030;28;20413;-83
2023/01/28 09:52:40;;;;;;;0.10;0.10;;;;;;;5.45;57.98;103292.28;5090576;28;20032;-82
2023/01/28 09:55:36;;;;;;;0.10;0.10;;;;;;;5.50;58.26;103294.22;5091566;28;20054;-81
2023/01/28 09:58:10;;;;;;;0.25;0.25;;;;;;;5.50;58.73;103291.59;5087281;28;20032;-81
2023/01/28 10:03:57;;;;;;;0.10;0.10;;;;;;;5.68;59.16;103303.69;5084636;27;20385;-81
2023/01/28 10:09:59;;;;;;;0.20;0.20;;;;;;;5.71;59.17;103314.34;5113040;27;1186218;-80
2023/01/28 10:12:52;;;;;;;0.10;0.10;;;;;;;5.79;58.45;103317.28;5135957;27;20039;-81
2023/01/28 10:18:07;;;;;;;0.10;0.10;;;;;;;5.88;57.94;103311.47;5118107;27;20404;-81
2023/01/28 10:20:46;;;;;;;0.43;0.43;;;;;;;5.84;56.25;103305.19;5086000;28;20063;-81
2023/01/28 10:23:38;;;;;;;0.10;0.10;;;;;;;5.91;56.47;103301.97;5093306;28;20030;-84
2023/01/28 10:26:20;;;;;;;0.10;0.10;;;;;;;5.93;57.88;103302.94;5071688;28;20052;-83
2023/01/28 10:28:51;;;;;;;0.10;0.10;;;;;;;5.94;56.56;103295.94;5072884;28;20032;-81
2023/01/28 10:31:18;;;;;;;0.20;0.20;;;;;;;6.02;58.14;103289.28;5070886;28;20461;-83
2023/01/28 10:33:44;;;;;;;0.10;0.10;;;;;;;6.06;57.05;103288.56;5080472;28;20017;-87
2023/01/28 10:36:10;;;;;;;0.10;0.10;;;;;;;6.12;57.43;103286.16;5091387;28;20116;-82
2023/01/28 10:38:36;;;;;;;0.10;0.10;;;;;;;6.12;56.41;103283.53;5079079;28;20041;-81
2023/01/28 10:41:04;;;;;;;0.10;0.10;;;;;;;6.17;57.07;103288.06;5067546;28;20048;-80
2023/01/28 10:43:34;;;;;;;0.10;0.10;;;;;;;6.24;57.05;103285.72;5069063;28;20064;-81
2023/01/28 10:48:47;;;;;;;0.15;0.15;;;;;;;6.29;56.64;103285.88;5048928;28;20765;-81
2023/01/28 10:51:14;;;;;;;1.65;1.10;;;;;;;6.28;55.86;103284.06;5050123;28;20056;-81
2023/01/28 10:56:26;;;;;;;0.10;0.10;;;;;;;6.40;56.44;103271.38;5076466;27;1864974;-81
2023/01/28 11:01:49;;;;;;;0.10;0.10;;;;;;;6.62;55.72;103256.34;5095592;27;20866;-83
2023/01/28 11:04:22;;;;;;;0.10;0.10;;;;;;;6.67;56.58;103249.50;5102963;28;20440;-81
2023/01/28 11:07:05;;;;;;;0.20;0.20;;;;;;;6.74;55.20;103233.06;5098980;28;20450;-81
2023/01/28 11:09:36;;;;;;;0.10;0.10;;;;;;;6.70;53.74;103220.63;5095005;28;20490;-82
2023/01/28 11:12:26;;;;;;;0.10;0.10;;;;;;;6.84;55.14;103215.84;5092114;28;20047;-82
2023/01/28 11:17:34;;;;;;;0.10;0.10;;;;;;;6.88;55.17;103201.91;5113921;27;1167553;-81
2023/01/28 11:20:11;;;;;;;0.20;0.20;;;;;;;6.90;54.08;103194.06;5118204;27;20291;-80
2023/01/28 11:22:41;;;;;;;0.10;0.10;;;;;;;6.88;55.09;103198.38;5127365;27;20027;-81
2023/01/28 11:27:55;;;;;;;0.15;0.15;;;;;;;6.88;54.25;103186.09;5062577;28;20512;-83
2023/01/28 11:30:24;;;;;;;0.10;0.10;;;;;;;6.93;55.06;103184.50;5053780;28;20037;-82
2023/01/28 11:35:38;;;;;;;0.10;0.10;;;;;;;7.02;53.98;103173.38;5104553;27;1168142;-83
2023/01/28 11:38:18;;;;;;;0.10;0.10;;;;;;;7.10;53.67;103161.34;5122476;28;20278;-83
2023/01/28 11:40:53;;;;;;;0.10;0.10;;;;;;;7.16;54.88;103152.72;5123426;28;20390;-84
2023/01/28 11:43:22;;;;;;;0.10;0.10;;;;;;;7.17;53.90;103164.16;5111331;28;20027;-82
2023/01/28 11:48:37;;;;;;;0.03;0.03;;;;;;;7.29;53.93;103164.56;5057899;28;20142;-83
2023/01/28 11:51:15;;;;;;;0.10;0.10;;;;;;;7.27;53.44;103168.88;5039829;28;20561;-81
2023/01/28 11:54:12;;;;;;;0.10;0.10;;;;;;;7.32;54.27;103177.81;5044422;28;20033;-83
2023/01/28 11:57:03;;;;;;;0.20;0.20;;;;;;;7.36;54.41;103171.78;5035370;28;20045;-83
2023/01/28 12:02:43;;;;;;;0.15;0.15;;;;;;;7.57;53.29;103189.13;5059694;28;20391;-82
2023/01/28 12:05:41;;;;;;;0.10;0.10;;;;;;;7.66;53.92;103189.38;5041526;28;20033;-83
2023/01/28 12:11:09;;;;;;;0.20;0.20;;;;;;;7.85;53.03;103179.38;5116642;27;1861861;-80
2023/01/28 12:16:24;;;;;;;0.10;0.10;;;;;;;8.00;52.92;103181.56;5121768;27;1242358;-80
2023/01/28 12:22:02;;;;;;;0.10;0.10;;;;;;;8.06;52.88;103190.56;5113790;27;20391;-81
2023/01/28 12:33:32;;;;;;;0.10;0.10;;;;;;;8.23;50.54;103203.34;5105143;27;20392;-82
2023/01/28 12:36:22;;;;;;;0.63;0.63;;;;;;;8.16;49.17;103190.81;5076839;28;20086;-79
2023/01/28 12:39:07;;;;;;;0.00;0.00;;;;;;;8.24;51.21;103191.94;5087369;28;20391;-79
2023/01/28 12:41:42;;;;;;;0.10;0.10;;;;;;;8.33;51.75;103188.66;5082796;28;20035;-81
2023/01/28 12:44:25;;;;;;;0.10;0.10;;;;;;;8.41;51.04;103182.72;5089143;28;20039;-81
2023/01/28 12:46:54;;;;;;;;;;;;;;;8.49;49.82;103176.78;5091363;28;20395;-81
2023/01/28 12:49:31;;;;;;;0.10;0.10;;;;;;;8.42;51.16;103167.75;5088439;28;20618;-82
2023/01/28 12:52:19;;;;;;;0.10;0.10;;;;;;;8.47;50.88;103154.69;5094542;28;20024;-82
2023/01/28 12:55:21;;;;;;;0.10;0.10;;;;;;;8.48;51.31;103140.63;5089752;28;20040;-81
2023/01/28 12:57:48;;;;;;;0.10;0.10;;;;;;;8.47;51.72;103131.81;5114541;28;20034;-80
2023/01/28 13:03:31;;;;;;;0.20;0.20;;;;;;;8.51;49.46;103109.91;5118286;27;20393;-82
2023/01/28 13:06:03;;;;;;;0.10;0.10;;;;;;;8.46;50.16;103107.97;5086880;28;20074;-82
2023/01/28 13:08:30;;;;;;;0.30;0.30;;;;;;;8.44;51.27;103107.94;5092182;28;20499;-82
2023/01/28 13:10:59;;;;;;;0.10;0.10;;;;;;;8.49;51.73;103108.09;5097762;28;20427;-83
2023/01/28 13:13:34;;;;;;;0.10;0.10;;;;;;;8.51;50.17;103103.72;5077242;28;20413;-84
2023/01/28 13:16:02;;;;;;;0.10;0.10;;;;;;;8.47;49.74;103112.44;5086024;28;20433;-82
2023/01/28 13:21:31;;;;;;;0.10;0.10;;;;;;;8.64;49.79;103119.03;5067697;28;20394;-85